createdAt,value
2022-08-03T00:00:29.348Z,19.10
2022-08-03T00:02:56.781Z,19.10
2022-08-03T00:05:23.874Z,19.10
2022-08-03T00:07:51.015Z,19.00
2022-08-03T00:10:20.280Z,19.00
2022-08-03T00:12:47.607Z,19.00
2022-08-03T00:15:16.414Z,18.90
2022-08-03T00:17:52.542Z,19.00
2022-08-03T00:20:25.091Z,18.90
2022-08-03T00:22:52.227Z,18.90
2022-08-03T00:25:19.538Z,18.90
2022-08-03T00:27:50.403Z,18.80
2022-08-03T00:30:17.885Z,18.80
2022-08-03T00:32:45.356Z,18.80
2022-08-03T00:35:32.462Z,18.80
2022-08-03T00:38:00.562Z,18.70
2022-08-03T00:40:27.625Z,18.70
2022-08-03T00:42:55.571Z,18.70
2022-08-03T00:45:24.853Z,18.60
2022-08-03T00:47:52.072Z,18.60
2022-08-03T00:50:20.125Z,18.60
2022-08-03T00:52:47.310Z,18.60
2022-08-03T00:55:14.360Z,18.60
2022-08-03T00:57:42.567Z,18.50
2022-08-03T01:00:10.876Z,18.60
2022-08-03T01:02:38.933Z,18.50
2022-08-03T01:05:07.527Z,18.50
2022-08-03T01:08:20.134Z,18.50
2022-08-03T01:10:56.162Z,18.50
2022-08-03T01:14:03.990Z,18.50
2022-08-03T01:16:39.310Z,18.40
2022-08-03T01:19:24.609Z,18.40
2022-08-03T01:21:57.330Z,18.40
2022-08-03T01:24:52.814Z,18.40
2022-08-03T01:27:22.142Z,18.40
2022-08-03T01:30:18.332Z,18.40
2022-08-03T02:18:40.326Z,18.00
2022-08-03T02:21:11.065Z,18.10
2022-08-03T02:23:38.745Z,18.10
2022-08-03T02:26:07.493Z,18.10
2022-08-03T02:28:38.924Z,18.10
2022-08-03T02:31:11.744Z,18.20
2022-08-03T02:33:45.257Z,18.20
2022-08-03T02:36:12.445Z,18.30
2022-08-03T02:38:41.377Z,18.40
2022-08-03T02:41:09.586Z,18.40
2022-08-03T02:43:57.688Z,18.40
2022-08-03T02:46:25.951Z,18.50
2022-08-03T02:48:52.943Z,18.50
2022-08-03T02:51:20.037Z,18.50
2022-08-03T02:53:46.938Z,18.50
2022-08-03T02:56:14.024Z,18.60
2022-08-03T02:58:42.948Z,18.60
2022-08-03T03:01:10.551Z,18.60
2022-08-03T03:03:44.642Z,18.70
2022-08-03T03:06:12.054Z,18.70
2022-08-03T03:08:39.416Z,18.80
2022-08-03T03:11:06.294Z,18.80
2022-08-03T03:13:33.470Z,18.80
2022-08-03T03:16:01.816Z,18.90
2022-08-03T03:18:29.278Z,18.90
2022-08-03T03:20:56.325Z,18.90
2022-08-03T03:23:23.361Z,18.90
2022-08-03T03:25:50.420Z,19.00
2022-08-03T03:28:17.527Z,19.00
2022-08-03T03:30:44.438Z,19.00
2022-08-03T03:33:11.316Z,19.10
2022-08-03T03:35:39.403Z,19.10
2022-08-03T03:38:09.185Z,19.00
2022-08-03T03:40:36.850Z,19.10
2022-08-03T03:43:04.387Z,19.10
2022-08-03T03:45:31.397Z,19.10
2022-08-03T03:48:00.507Z,19.10
2022-08-03T03:50:27.918Z,19.00
2022-08-03T03:52:54.975Z,19.00
2022-08-03T03:55:22.003Z,19.00
2022-08-03T03:57:49.154Z,19.10
2022-08-03T04:00:17.124Z,19.10
2022-08-03T04:02:45.226Z,19.10
2022-08-03T04:05:30.851Z,19.00
2022-08-03T04:08:28.035Z,19.00
2022-08-03T04:11:13.598Z,19.10
2022-08-03T04:13:43.247Z,19.00
2022-08-03T04:16:13.006Z,19.00
2022-08-03T04:18:41.693Z,19.10
2022-08-03T04:21:10.676Z,19.10
2022-08-03T04:23:39.720Z,19.10
2022-08-03T04:26:07.829Z,19.10
2022-08-03T04:28:34.989Z,19.10
2022-08-03T04:31:02.034Z,19.10
2022-08-03T04:33:30.478Z,19.10
2022-08-03T04:36:02.591Z,19.10
2022-08-03T04:38:35.064Z,19.10
2022-08-03T04:41:02.106Z,19.20
2022-08-03T04:43:29.754Z,19.20
2022-08-03T04:45:56.869Z,19.20
2022-08-03T04:48:24.125Z,19.20
2022-08-03T04:50:50.997Z,19.20
2022-08-03T04:53:19.523Z,19.20
2022-08-03T04:55:47.070Z,19.20
2022-08-03T04:58:14.010Z,19.20
2022-08-03T05:00:40.972Z,19.20
2022-08-03T05:03:23.920Z,19.20
2022-08-03T05:05:53.034Z,19.20
2022-08-03T05:08:27.752Z,19.30
2022-08-03T05:10:58.869Z,19.30
2022-08-03T05:13:26.378Z,19.30
2022-08-03T05:15:53.632Z,19.30
2022-08-03T05:18:20.805Z,19.30
2022-08-03T05:20:47.917Z,19.30
2022-08-03T05:23:14.958Z,19.30
2022-08-03T05:25:46.101Z,19.30
2022-08-03T05:28:16.925Z,19.30
2022-08-03T05:30:46.145Z,19.40
2022-08-03T05:33:13.016Z,19.40
2022-08-03T05:36:01.934Z,19.40
2022-08-03T05:38:34.951Z,19.40
2022-08-03T05:41:21.559Z,19.40
2022-08-03T05:43:52.046Z,19.50
2022-08-03T05:46:19.119Z,19.50
2022-08-03T05:48:46.479Z,19.50
2022-08-03T05:51:13.634Z,19.60
2022-08-03T05:53:41.842Z,19.60
2022-08-03T05:56:13.758Z,19.70
2022-08-03T05:58:44.582Z,19.70
2022-08-03T06:01:12.027Z,19.80
2022-08-03T06:03:39.339Z,19.80
2022-08-03T06:06:06.566Z,19.80
2022-08-03T06:08:34.233Z,19.80
2022-08-03T06:11:01.298Z,20.00
2022-08-03T06:13:28.617Z,20.00
2022-08-03T06:15:55.560Z,20.10
2022-08-03T06:18:24.128Z,20.20
2022-08-03T06:20:52.347Z,20.20
2022-08-03T06:23:19.724Z,20.20
2022-08-03T06:25:47.037Z,20.30
2022-08-03T06:28:51.513Z,20.40
2022-08-03T06:31:06.534Z,20.40
2022-08-03T06:34:30.045Z,20.40
2022-08-03T06:36:21.229Z,20.40
2022-08-03T06:38:48.561Z,20.50
2022-08-03T06:41:15.538Z,20.60
2022-08-03T06:44:04.025Z,20.80
2022-08-03T06:46:30.432Z,20.80
2022-08-03T06:48:57.436Z,20.80
2022-08-03T06:52:05.344Z,20.80
2022-08-03T06:54:12.498Z,20.90
2022-08-03T06:56:39.398Z,21.00
2022-08-03T06:59:06.870Z,21.10
2022-08-03T07:01:33.924Z,21.10
2022-08-03T07:04:03.273Z,21.00
2022-08-03T07:06:30.413Z,21.00
2022-08-03T07:08:59.602Z,21.00
2022-08-03T07:11:26.867Z,21.00
2022-08-03T07:13:54.008Z,21.10
2022-08-03T07:16:21.009Z,21.10
2022-08-03T07:18:47.966Z,21.20
2022-08-03T07:21:17.032Z,21.20
2022-08-03T07:23:44.078Z,21.20
2022-08-03T07:26:11.786Z,21.30
2022-08-03T07:28:38.805Z,21.50
2022-08-03T07:31:06.052Z,21.60
2022-08-03T07:33:33.157Z,21.70
2022-08-03T07:36:00.170Z,21.70
2022-08-03T07:38:27.080Z,21.70
2022-08-03T07:40:54.418Z,21.70
2022-08-03T07:43:21.466Z,21.80
2022-08-03T07:45:48.519Z,21.80
2022-08-03T07:48:15.503Z,21.70
2022-08-03T07:50:42.528Z,21.80
2022-08-03T07:53:09.564Z,21.70
2022-08-03T07:55:36.725Z,21.60
2022-08-03T07:58:22.019Z,21.60
2022-08-03T08:00:53.086Z,21.60
2022-08-03T08:03:22.056Z,21.60
2022-08-03T08:05:49.471Z,21.70
2022-08-03T08:08:16.832Z,21.80
2022-08-03T08:10:57.876Z,21.90
2022-08-03T08:13:25.842Z,22.10
2022-08-03T08:15:52.722Z,22.10
2022-08-03T08:18:19.991Z,22.10
2022-08-03T08:20:46.987Z,22.20
2022-08-03T08:23:37.865Z,22.20
2022-08-03T08:26:01.190Z,22.40
2022-08-03T08:28:32.127Z,22.40
2022-08-03T08:31:00.841Z,22.50
2022-08-03T08:33:37.639Z,22.60
2022-08-03T08:36:15.687Z,22.70
2022-08-03T08:38:44.689Z,22.70
2022-08-03T08:41:12.112Z,22.80
2022-08-03T08:43:39.722Z,22.80
2022-08-03T08:46:08.639Z,22.90
2022-08-03T08:48:36.767Z,22.90
2022-08-03T08:51:03.931Z,22.90
2022-08-03T08:53:32.407Z,22.80
2022-08-03T08:56:01.090Z,22.80
2022-08-03T08:58:37.303Z,22.80
2022-08-03T09:01:06.370Z,22.90
2022-08-03T09:03:34.427Z,23.00
2022-08-03T09:06:02.329Z,23.20
2022-08-03T09:08:30.400Z,23.40
2022-08-03T09:10:57.564Z,23.50
2022-08-03T09:13:24.897Z,23.60
2022-08-03T09:16:10.311Z,23.60
2022-08-03T09:18:37.593Z,23.80
2022-08-03T09:21:31.709Z,23.90
2022-08-03T09:24:02.861Z,24.00
2022-08-03T09:26:31.516Z,24.00
2022-08-03T09:29:15.435Z,24.00
2022-08-03T09:31:46.646Z,24.10
2022-08-03T09:34:15.190Z,24.30
2022-08-03T09:36:48.651Z,24.30
2022-08-03T09:39:17.149Z,24.40
2022-08-03T09:42:23.948Z,24.30
2022-08-03T09:44:52.034Z,24.30
2022-08-03T09:47:28.957Z,24.40
2022-08-03T09:49:58.333Z,24.60
2022-08-03T09:52:37.806Z,24.80
2022-08-03T09:56:32.749Z,24.80
2022-08-03T09:58:07.090Z,24.70
2022-08-03T10:00:34.223Z,24.70
2022-08-03T10:03:04.655Z,24.60
2022-08-03T10:05:34.956Z,24.80
2022-08-03T10:08:10.792Z,24.90
2022-08-03T10:10:48.127Z,24.90
2022-08-03T10:13:16.415Z,24.60
2022-08-03T10:16:23.118Z,24.50
2022-08-03T10:18:31.252Z,24.50
2022-08-03T10:21:05.158Z,24.50
2022-08-03T10:23:35.929Z,24.40
2022-08-03T10:26:04.425Z,24.40
2022-08-03T10:28:45.207Z,24.60
2022-08-03T10:31:14.321Z,24.60
2022-08-03T10:33:50.354Z,24.80
2022-08-03T10:36:19.217Z,24.80
2022-08-03T10:38:56.800Z,25.00
2022-08-03T10:41:32.525Z,25.10
2022-08-03T10:44:07.393Z,25.30
2022-08-03T10:46:34.811Z,25.50
2022-08-03T10:49:01.850Z,25.60
2022-08-03T10:51:32.239Z,25.40
2022-08-03T10:54:01.794Z,25.20
2022-08-03T10:56:50.865Z,25.30
2022-08-03T10:59:28.003Z,25.40
2022-08-03T11:02:00.420Z,25.40
2022-08-03T11:04:29.954Z,25.50
2022-08-03T11:07:25.088Z,25.80
2022-08-03T11:09:56.211Z,25.90
2022-08-03T11:12:32.837Z,26.20
2022-08-03T11:15:02.279Z,26.40
2022-08-03T11:17:29.653Z,26.70
2022-08-03T11:19:58.341Z,26.70
2022-08-03T11:22:26.001Z,26.60
2022-08-03T11:24:57.651Z,26.50
2022-08-03T11:27:29.121Z,26.40
2022-08-03T11:30:08.319Z,26.40
2022-08-03T11:32:38.756Z,26.40
2022-08-03T11:35:12.206Z,26.40
2022-08-03T11:38:01.998Z,26.40
2022-08-03T11:40:35.235Z,26.40
2022-08-03T11:43:02.968Z,26.40
2022-08-03T11:45:31.398Z,26.70
2022-08-03T11:48:00.383Z,27.00
2022-08-03T11:50:27.499Z,27.10
2022-08-03T11:52:54.651Z,27.40
2022-08-03T11:55:22.428Z,27.60
2022-08-03T11:59:01.446Z,27.80
2022-08-03T12:00:36.895Z,27.90
2022-08-03T12:03:10.015Z,28.20
2022-08-03T12:05:52.679Z,28.40
2022-08-03T12:08:30.215Z,28.50
2022-08-03T12:10:58.168Z,28.40
2022-08-03T12:14:45.506Z,28.70
2022-08-03T12:16:23.336Z,28.90
2022-08-03T12:19:05.410Z,29.10
2022-08-03T12:21:32.649Z,29.10
2022-08-03T12:24:01.265Z,29.00
2022-08-03T12:26:29.277Z,29.10
2022-08-03T12:28:59.559Z,28.90
2022-08-03T12:31:28.796Z,28.90
2022-08-03T12:34:03.846Z,29.50
2022-08-03T12:36:32.392Z,29.60
2022-08-03T12:39:05.291Z,29.60
2022-08-03T12:41:35.627Z,30.20
2022-08-03T12:44:08.865Z,31.10
2022-08-03T12:46:47.747Z,31.70
2022-08-03T12:49:16.311Z,31.40
2022-08-03T12:51:43.485Z,31.20
2022-08-03T12:54:16.415Z,30.80
2022-08-03T12:57:10.439Z,30.70
2022-08-03T12:59:45.146Z,30.40
2022-08-03T13:02:23.639Z,30.50
2022-08-03T13:04:51.557Z,30.70
2022-08-03T13:07:19.555Z,31.10
2022-08-03T13:09:53.367Z,31.30
2022-08-03T13:12:27.956Z,31.40
2022-08-03T13:15:03.205Z,31.60
2022-08-03T13:17:30.367Z,32.10
2022-08-03T13:19:57.858Z,32.50
2022-08-03T13:22:27.389Z,32.70
2022-08-03T13:24:58.324Z,33.30
2022-08-03T13:28:04.322Z,33.60
2022-08-03T13:30:29.706Z,33.70
2022-08-03T13:33:01.955Z,34.30
2022-08-03T13:35:30.497Z,34.50
2022-08-03T13:38:06.629Z,34.90
2022-08-03T13:40:41.742Z,34.90
2022-08-03T13:43:13.916Z,34.40
2022-08-03T13:45:47.536Z,34.30
2022-08-03T13:48:35.908Z,34.30
2022-08-03T13:51:22.051Z,34.40
2022-08-03T13:53:52.850Z,34.00
2022-08-03T13:56:20.406Z,33.90
2022-08-03T13:58:50.565Z,34.00
2022-08-03T14:01:34.352Z,34.20
2022-08-03T14:04:21.777Z,34.30
2022-08-03T14:06:51.944Z,34.60
2022-08-03T14:09:19.351Z,35.00
2022-08-03T14:12:07.781Z,35.00
2022-08-03T14:14:46.395Z,35.70
2022-08-03T14:17:13.715Z,36.00
2022-08-03T14:19:53.240Z,35.70
2022-08-03T14:22:22.986Z,35.40
2022-08-03T14:24:50.494Z,35.70
2022-08-03T14:27:19.394Z,35.20
2022-08-03T14:29:46.672Z,35.40
2022-08-03T14:32:16.061Z,35.20
2022-08-03T14:34:51.904Z,35.10
2022-08-03T14:37:33.409Z,35.50
2022-08-03T14:40:01.948Z,35.90
2022-08-03T14:42:29.747Z,36.20
2022-08-03T14:45:04.570Z,35.50
2022-08-03T14:49:02.621Z,35.30
2022-08-03T14:50:41.640Z,35.00
2022-08-03T14:53:16.298Z,35.50
2022-08-03T14:55:51.741Z,36.00
2022-08-03T14:58:21.807Z,35.40
2022-08-03T15:00:49.951Z,34.40
2022-08-03T15:03:24.739Z,33.50
2022-08-03T15:05:56.426Z,33.30
2022-08-03T15:08:24.109Z,33.00
2022-08-03T15:10:51.701Z,32.90
2022-08-03T15:13:19.681Z,33.50
2022-08-03T15:15:48.409Z,33.20
2022-08-03T15:18:15.901Z,34.00
2022-08-03T15:20:45.482Z,33.90
2022-08-03T15:23:14.478Z,34.10
2022-08-03T15:26:03.894Z,33.60
2022-08-03T15:28:34.673Z,34.20
2022-08-03T15:31:09.052Z,34.80
2022-08-03T15:33:37.014Z,34.30
2022-08-03T15:36:09.867Z,33.60
2022-08-03T15:38:41.311Z,33.30
2022-08-03T15:41:10.944Z,33.60
2022-08-03T15:43:41.996Z,34.20
2022-08-03T15:46:33.304Z,34.60
2022-08-03T15:49:00.636Z,34.00
2022-08-03T15:51:29.036Z,33.70
2022-08-03T15:54:00.478Z,33.90
2022-08-03T15:56:30.189Z,34.00
2022-08-03T15:59:10.596Z,33.60
2022-08-03T16:01:42.168Z,33.00
2022-08-03T16:04:09.717Z,32.70
2022-08-03T16:06:36.724Z,32.50
2022-08-03T16:09:23.859Z,32.10
2022-08-03T16:11:54.658Z,31.50
2022-08-03T16:14:32.549Z,31.30
2022-08-03T16:17:05.105Z,31.10
2022-08-03T16:19:32.243Z,31.60
2022-08-03T16:21:59.397Z,31.90
2022-08-03T16:24:28.362Z,31.60
2022-08-03T16:26:58.044Z,31.30
2022-08-03T16:29:27.500Z,31.00
2022-08-03T16:31:54.462Z,30.80
2022-08-03T16:34:21.619Z,31.00
2022-08-03T16:36:48.707Z,31.40
2022-08-03T16:39:18.184Z,31.70
2022-08-03T16:41:53.762Z,31.60
2022-08-03T16:44:34.852Z,31.40
2022-08-03T16:47:02.663Z,30.90
2022-08-03T16:49:52.971Z,30.50
2022-08-03T16:52:18.041Z,30.60
2022-08-03T16:54:52.606Z,30.80
2022-08-03T16:57:55.787Z,30.80
2022-08-03T17:00:10.068Z,30.70
2022-08-03T17:02:40.709Z,31.50
2022-08-03T17:05:15.450Z,31.50
2022-08-03T17:07:46.950Z,31.60
2022-08-03T17:10:22.017Z,32.10
2022-08-03T17:12:54.270Z,33.40
2022-08-03T17:15:38.348Z,33.30
2022-08-03T17:18:10.072Z,32.90
2022-08-03T17:20:41.190Z,32.10
2022-08-03T17:23:42.409Z,31.50
2022-08-03T17:26:21.635Z,30.90
2022-08-03T17:28:57.919Z,30.30
2022-08-03T17:31:31.109Z,29.70
2022-08-03T17:34:00.377Z,29.60
2022-08-03T17:36:47.497Z,29.40
2022-08-03T17:39:30.886Z,29.40
2022-08-03T17:42:31.078Z,29.40
2022-08-03T17:44:57.849Z,29.50
2022-08-03T17:47:29.269Z,30.40
2022-08-03T17:50:25.176Z,30.60
2022-08-03T17:52:57.402Z,30.90
2022-08-03T17:55:57.871Z,31.70
2022-08-03T17:58:22.526Z,32.30
2022-08-03T18:01:58.217Z,32.00
2022-08-03T18:03:59.320Z,31.10
2022-08-03T18:06:32.121Z,30.50
2022-08-03T18:09:04.664Z,30.60
2022-08-03T18:11:35.854Z,30.50
2022-08-03T18:14:42.548Z,30.30
2022-08-03T18:20:32.199Z,29.60
2022-08-03T18:23:04.900Z,29.40
2022-08-03T18:25:38.125Z,29.20
2022-08-03T18:28:11.973Z,28.80
2022-08-03T18:30:39.174Z,28.40
2022-08-03T18:34:17.079Z,28.20
2022-08-03T18:36:17.538Z,28.10
2022-08-03T18:38:49.434Z,27.90
2022-08-03T18:41:22.015Z,27.80
2022-08-03T18:44:06.898Z,27.60
2022-08-03T18:47:16.324Z,27.40
2022-08-03T18:50:19.236Z,27.30
2022-08-03T18:53:16.569Z,27.00
2022-08-03T18:56:11.448Z,26.70
2022-08-03T18:58:52.339Z,26.50
2022-08-03T19:02:00.387Z,26.30
2022-08-03T19:04:37.063Z,26.30
2022-08-03T19:07:11.210Z,26.20
2022-08-03T19:09:50.155Z,26.10
2022-08-03T19:12:28.093Z,25.90
2022-08-03T19:15:13.515Z,25.90
2022-08-03T19:17:50.330Z,25.80
2022-08-03T19:20:28.211Z,25.60
2022-08-03T19:22:56.134Z,25.60
2022-08-03T19:25:35.096Z,25.50
2022-08-03T19:28:06.312Z,25.40
2022-08-03T19:30:53.492Z,25.30
2022-08-03T19:33:20.896Z,25.20
2022-08-03T19:35:56.970Z,25.10
2022-08-03T19:38:29.186Z,25.10
2022-08-03T19:41:02.222Z,25.10
2022-08-03T19:43:53.766Z,25.00
2022-08-03T19:46:30.394Z,25.00
2022-08-03T19:49:04.949Z,24.90
2022-08-03T19:52:01.960Z,24.90
2022-08-03T19:54:29.975Z,24.90
2022-08-03T19:56:59.178Z,24.80
2022-08-03T19:59:26.531Z,24.70
2022-08-03T20:02:01.726Z,24.70
2022-08-03T20:04:28.821Z,24.70
2022-08-03T20:07:03.248Z,24.60
2022-08-03T20:09:32.227Z,24.50
2022-08-03T20:12:04.374Z,24.40
2022-08-03T20:14:32.282Z,24.40
2022-08-03T20:16:59.306Z,24.30
2022-08-03T20:19:32.640Z,24.30
2022-08-03T20:22:02.190Z,24.30
2022-08-03T20:24:35.284Z,24.30
2022-08-03T20:27:05.210Z,24.20
2022-08-03T20:29:42.600Z,24.10
2022-08-03T20:32:29.310Z,24.00
2022-08-03T20:35:01.573Z,23.90
2022-08-03T20:37:30.501Z,23.90
2022-08-03T20:40:01.312Z,23.90
2022-08-03T20:42:31.047Z,23.80
2022-08-03T20:45:06.302Z,23.70
2022-08-03T20:50:31.687Z,23.60
2022-08-03T20:52:59.484Z,23.60
2022-08-03T20:55:47.574Z,23.50
2022-08-03T20:58:18.956Z,23.50
2022-08-03T21:00:47.035Z,23.40
2022-08-03T21:03:20.915Z,23.40
2022-08-03T21:05:51.684Z,23.40
2022-08-03T21:11:18.921Z,23.40
2022-08-03T21:13:04.851Z,30.10
2022-08-03T21:13:07.506Z,23.70
2022-08-03T21:14:05.377Z,23.30
2022-08-03T21:16:37.604Z,23.30
2022-08-03T21:19:07.770Z,23.30
2022-08-03T21:21:40.066Z,23.30
2022-08-03T21:24:13.347Z,23.20
2022-08-03T21:26:43.019Z,23.20
2022-08-03T21:29:13.781Z,23.20
2022-08-03T21:31:45.384Z,23.10
2022-08-03T21:34:13.260Z,23.10
2022-08-03T21:36:41.834Z,23.10
2022-08-03T21:39:13.743Z,23.00
2022-08-03T21:41:41.066Z,23.00
2022-08-03T21:44:08.181Z,23.00
2022-08-03T21:46:44.615Z,22.90
2022-08-03T21:50:04.979Z,22.90
2022-08-03T21:52:01.153Z,22.80
2022-08-03T21:54:41.823Z,22.70
2022-08-03T21:57:20.443Z,22.80
2022-08-03T22:00:03.854Z,22.70
2022-08-03T22:02:32.049Z,22.70
2022-08-03T22:05:00.037Z,22.60
2022-08-03T22:07:31.605Z,22.60
2022-08-03T22:10:00.050Z,22.60
2022-08-03T22:12:29.051Z,22.50
2022-08-03T22:15:01.260Z,22.50
2022-08-03T22:17:54.957Z,22.40
2022-08-03T22:20:21.519Z,22.40
2022-08-03T22:22:54.962Z,22.30
2022-08-03T22:25:29.361Z,22.30
2022-08-03T22:27:58.565Z,22.20
2022-08-03T22:30:33.455Z,22.20
2022-08-03T22:33:00.971Z,22.10
2022-08-03T22:35:30.113Z,22.10
2022-08-03T22:38:02.396Z,22.00
2022-08-03T22:45:04.841Z,21.90
2022-08-03T22:47:42.882Z,21.90
2022-08-03T22:50:31.715Z,21.80
2022-08-03T22:53:20.828Z,21.90
2022-08-03T22:56:38.833Z,21.80
2022-08-03T22:59:40.907Z,21.80
2022-08-03T23:02:35.599Z,21.80
2022-08-03T23:05:11.003Z,21.70
2022-08-03T23:08:04.588Z,21.60
2022-08-03T23:10:58.128Z,21.40
2022-08-03T23:13:32.828Z,21.40
2022-08-03T23:16:10.730Z,21.40
2022-08-03T23:18:40.441Z,21.40
2022-08-03T23:21:11.136Z,21.40
2022-08-03T23:23:44.290Z,21.50
2022-08-03T23:26:14.259Z,21.60
2022-08-03T23:28:44.077Z,21.50
2022-08-03T23:31:11.222Z,21.60
2022-08-03T23:33:39.344Z,21.50
2022-08-03T23:36:09.661Z,21.50
2022-08-03T23:42:51.990Z,21.50
2022-08-03T23:45:39.501Z,21.50
2022-08-03T23:52:14.500Z,21.30
2022-08-03T23:54:43.825Z,21.20
2022-08-03T23:57:20.150Z,21.10
